Time;durP1;ratioP1;P1;durP2;ratioP2;P2;SDS_P1;SDS_P2;PMS_P1;PMS_P2;Temp;Humidity;BMP_temperature;BMP_pressure;BME280_temperature;BME280_humidity;BME280_pressure;Samples;Min_cycle;Max_cycle;Signal;HPM_P1;HPM_P2
2024/02/01 00:00:53;;;;;;;0.50;0.50;;;;;;;0.04;100.00;102567.84;5079267;28;20036;-78
2024/02/01 00:03:19;;;;;;;0.50;0.50;;;;;;;0.16;100.00;102562.03;5079317;28;20065;-79
2024/02/01 00:05:45;;;;;;;0.50;0.50;;;;;;;0.18;100.00;102563.69;5079680;28;20142;-78
2024/02/01 00:08:10;;;;;;;0.50;0.50;;;;;;;0.19;100.00;102564.56;5078620;28;20530;-78
2024/02/01 00:10:36;;;;;;;0.50;0.50;;;;;;;0.29;100.00;102575.59;5079092;28;20039;-77
2024/02/01 00:13:02;;;;;;;0.50;0.50;;;;;;;0.30;100.00;102577.34;5079026;28;20115;-78
2024/02/01 00:15:29;;;;;;;0.50;0.50;;;;;;;0.27;100.00;102583.63;5079100;28;20050;-78
2024/02/01 00:17:55;;;;;;;0.50;0.50;;;;;;;0.24;100.00;102582.88;5078662;28;20046;-77
2024/02/01 00:20:21;;;;;;;0.50;0.50;;;;;;;0.32;100.00;102584.28;5078923;28;20023;-78
2024/02/01 00:22:47;;;;;;;0.60;0.60;;;;;;;0.35;100.00;102591.25;5079349;28;20066;-78
2024/02/01 00:25:12;;;;;;;0.50;0.50;;;;;;;0.48;100.00;102586.25;5082922;28;20032;-78
2024/02/01 00:27:38;;;;;;;0.50;0.50;;;;;;;0.54;100.00;102588.66;5099508;28;20026;-77
2024/02/01 00:30:04;;;;;;;0.50;0.50;;;;;;;0.64;100.00;102595.28;5082723;28;20058;-78
2024/02/01 00:32:31;;;;;;;0.50;0.50;;;;;;;0.76;100.00;102594.75;5099404;28;20055;-78
2024/02/01 00:34:57;;;;;;;0.50;0.50;;;;;;;0.91;100.00;102601.16;5082419;28;20078;-77
2024/02/01 00:37:23;;;;;;;0.50;0.50;;;;;;;0.95;100.00;102601.88;5082609;28;20028;-78
2024/02/01 00:39:48;;;;;;;0.50;0.50;;;;;;;1.00;100.00;102594.59;5082375;28;20376;-78
2024/02/01 00:42:14;;;;;;;0.50;0.50;;;;;;;1.03;100.00;102589.13;5083332;28;20066;-78
2024/02/01 00:44:40;;;;;;;0.50;0.50;;;;;;;1.06;100.00;102597.84;5082384;28;20479;-78
2024/02/01 00:47:07;;;;;;;0.50;0.50;;;;;;;1.08;100.00;102600.41;5082067;28;20077;-78
2024/02/01 00:49:34;;;;;;;0.50;0.50;;;;;;;1.10;100.00;102583.50;5082578;28;20046;-78
2024/02/01 00:51:59;;;;;;;0.50;0.50;;;;;;;1.06;100.00;102576.63;5082495;28;20036;-78
2024/02/01 00:54:25;;;;;;;0.50;0.50;;;;;;;1.06;100.00;102586.38;5082265;28;20032;-78
2024/02/01 00:56:51;;;;;;;0.50;0.50;;;;;;;1.03;100.00;102597.09;5082222;28;20093;-77
2024/02/01 00:59:17;;;;;;;0.50;0.50;;;;;;;1.03;100.00;102586.50;5082249;28;20035;-78
2024/02/01 01:01:42;;;;;;;0.50;0.50;;;;;;;0.93;100.00;102587.81;5082212;28;20035;-78
2024/02/01 01:04:08;;;;;;;0.50;0.50;;;;;;;0.80;100.00;102585.75;5082088;28;20054;-78
2024/02/01 01:06:34;;;;;;;0.50;0.50;;;;;;;0.73;100.00;102586.94;5081717;28;20027;-77
2024/02/01 01:09:00;;;;;;;0.50;0.50;;;;;;;0.69;100.00;102597.72;5082532;28;20028;-78
2024/02/01 01:11:26;;;;;;;0.50;0.50;;;;;;;0.69;100.00;102592.41;5082109;28;20035;-78
2024/02/01 01:13:52;;;;;;;0.50;0.50;;;;;;;0.67;100.00;102604.88;5081998;28;20031;-78
2024/02/01 01:16:18;;;;;;;0.50;0.50;;;;;;;0.70;100.00;102605.59;5115642;28;20043;-77
2024/02/01 01:18:44;;;;;;;0.50;0.50;;;;;;;0.72;100.00;102592.31;5081910;28;20123;-78
2024/02/01 01:21:09;;;;;;;0.50;0.50;;;;;;;0.69;100.00;102598.59;5081840;28;20475;-78
2024/02/01 01:23:35;;;;;;;0.50;0.50;;;;;;;0.68;100.00;102591.56;5081867;28;20068;-77
2024/02/01 01:26:01;;;;;;;0.50;0.50;;;;;;;0.68;100.00;102593.34;5081751;28;20462;-78
2024/02/01 01:28:26;;;;;;;0.50;0.50;;;;;;;0.55;100.00;102590.38;5082286;28;20038;-78
2024/02/01 01:30:52;;;;;;;0.50;0.50;;;;;;;0.34;100.00;102589.50;5081863;28;20486;-78
2024/02/01 01:33:18;;;;;;;0.50;0.50;;;;;;;0.18;100.00;102597.22;5081603;28;20471;-78
2024/02/01 01:35:43;;;;;;;0.50;0.50;;;;;;;0.07;100.00;102597.66;5080243;28;20464;-78
2024/02/01 01:38:09;;;;;;;0.50;0.50;;;;;;;-0.10;100.00;102601.00;5081755;28;20036;-78
2024/02/01 01:40:35;;;;;;;0.50;0.50;;;;;;;-0.27;100.00;102600.78;5081397;28;20035;-78
2024/02/01 01:43:00;;;;;;;0.50;0.50;;;;;;;-0.47;100.00;102602.44;5081407;28;20088;-78
2024/02/01 01:45:26;;;;;;;0.50;0.50;;;;;;;-0.46;100.00;102605.94;5114637;28;20030;-78
2024/02/01 01:47:52;;;;;;;0.50;0.50;;;;;;;-0.42;100.00;102614.59;5080999;28;20070;-78
2024/02/01 01:50:18;;;;;;;0.50;0.50;;;;;;;-0.36;100.00;102606.47;5081259;28;20035;-78
2024/02/01 01:52:45;;;;;;;0.50;0.50;;;;;;;-0.41;100.00;102606.63;5081223;28;20035;-78
2024/02/01 01:55:11;;;;;;;0.50;0.50;;;;;;;-0.43;100.00;102599.69;5114502;28;20480;-78
2024/02/01 01:57:37;;;;;;;0.50;0.50;;;;;;;-0.42;100.00;102590.81;5081050;28;20042;-78
2024/02/01 02:00:04;;;;;;;0.50;0.50;;;;;;;-0.45;100.00;102597.09;5081096;28;20126;-78
2024/02/01 02:02:31;;;;;;;0.60;0.60;;;;;;;-0.41;100.00;102603.13;5114733;28;20028;-78
2024/02/01 02:04:57;;;;;;;0.50;0.50;;;;;;;-0.38;100.00;102590.66;5080945;28;20092;-78
2024/02/01 02:07:23;;;;;;;0.50;0.50;;;;;;;-0.39;100.00;102590.72;5080685;28;20024;-78
2024/02/01 02:09:49;;;;;;;0.60;0.60;;;;;;;-0.48;100.00;102582.25;5080619;28;20035;-78
2024/02/01 02:12:15;;;;;;;0.60;0.60;;;;;;;-0.53;100.00;102589.47;5080794;28;20387;-78
2024/02/01 02:14:41;;;;;;;0.50;0.50;;;;;;;-0.53;100.00;102594.78;5080436;28;20047;-78
2024/02/01 02:17:06;;;;;;;0.50;0.50;;;;;;;-0.46;100.00;102603.31;5080646;28;20051;-78
2024/02/01 02:19:32;;;;;;;0.50;0.50;;;;;;;-0.52;100.00;102585.91;5081250;28;20173;-78
2024/02/01 02:21:58;;;;;;;0.50;0.50;;;;;;;-0.66;100.00;102601.44;5081056;28;20035;-79
2024/02/01 02:24:25;;;;;;;0.50;0.50;;;;;;;-0.81;100.00;102610.78;5063714;28;20475;-78
2024/02/01 02:26:51;;;;;;;0.50;0.50;;;;;;;-0.79;100.00;102613.38;5097293;28;20479;-79
2024/02/01 02:29:17;;;;;;;0.50;0.50;;;;;;;-0.81;100.00;102597.56;5096881;28;20051;-78
2024/02/01 02:31:46;;;;;;;0.50;0.50;;;;;;;-0.92;100.00;102597.97;5080383;28;20120;-78
2024/02/01 02:34:13;;;;;;;0.50;0.50;;;;;;;-0.91;100.00;102601.47;5114304;28;20188;-77
2024/02/01 02:36:39;;;;;;;0.50;0.50;;;;;;;-0.87;100.00;102600.47;5080301;28;20554;-77
2024/02/01 02:39:05;;;;;;;0.50;0.50;;;;;;;-0.94;100.00;102606.88;5097149;28;20031;-77
2024/02/01 02:41:31;;;;;;;0.50;0.50;;;;;;;-0.99;100.00;102614.09;5096721;28;20042;-78
2024/02/01 02:43:57;;;;;;;0.50;0.50;;;;;;;-1.14;100.00;102624.31;5096636;28;20032;-78
2024/02/01 02:46:27;;;;;;;0.50;0.50;;;;;;;-1.25;100.00;102642.28;5096837;28;20432;-77
2024/02/01 02:48:53;;;;;;;0.50;0.50;;;;;;;-1.26;100.00;102643.19;5097463;28;20035;-77
2024/02/01 02:51:19;;;;;;;0.50;0.50;;;;;;;-1.23;100.00;102650.16;5097030;28;20032;-77
2024/02/01 02:53:45;;;;;;;0.50;0.50;;;;;;;-1.04;100.00;102647.72;5080052;28;20146;-77
2024/02/01 02:56:11;;;;;;;0.50;0.50;;;;;;;-0.85;100.00;102651.41;5079944;28;20043;-77
2024/02/01 02:58:37;;;;;;;0.50;0.50;;;;;;;-0.80;100.00;102648.63;5079873;28;20032;-78
2024/02/01 03:01:08;;;;;;;0.50;0.50;;;;;;;-0.82;100.00;102651.34;5079895;28;20130;-78
2024/02/01 03:03:40;;;;;;;0.50;0.50;;;;;;;-0.93;100.00;102657.00;5113616;28;20040;-78
2024/02/01 03:06:10;;;;;;;0.60;0.60;;;;;;;-1.04;100.00;102667.06;5097119;28;20038;-78
2024/02/01 03:08:39;;;;;;;0.60;0.60;;;;;;;-1.17;100.00;102671.03;5079702;28;20028;-78
2024/02/01 03:11:10;;;;;;;0.50;0.50;;;;;;;-1.16;100.00;102684.19;5079584;28;20031;-78
2024/02/01 03:13:45;;;;;;;0.50;0.50;;;;;;;-1.16;100.00;102693.91;5097040;28;20467;-78
2024/02/01 03:16:18;;;;;;;0.50;0.50;;;;;;;-1.14;100.00;102685.03;5080062;28;20031;-78
2024/02/01 03:18:49;;;;;;;0.50;0.50;;;;;;;-1.18;100.00;102675.47;5079503;28;20047;-78
2024/02/01 03:21:15;;;;;;;0.50;0.50;;;;;;;-1.20;100.00;102669.38;5095965;28;20092;-78
2024/02/01 03:23:42;;;;;;;0.50;0.50;;;;;;;-1.19;100.00;102675.50;5096266;28;20027;-78
2024/02/01 03:26:08;;;;;;;0.50;0.50;;;;;;;-1.29;100.00;102674.97;5096022;28;20043;-78
2024/02/01 03:28:34;;;;;;;0.52;0.52;;;;;;;-1.42;100.00;102671.88;5079402;28;20031;-78
2024/02/01 03:31:02;;;;;;;0.50;0.50;;;;;;;-1.46;100.00;102686.09;5079579;28;20123;-77
2024/02/01 03:33:30;;;;;;;0.50;0.50;;;;;;;-1.48;100.00;102676.50;5095980;28;20034;-78
2024/02/01 03:35:57;;;;;;;0.50;0.50;;;;;;;-1.46;100.00;102677.31;5096046;28;20031;-78
2024/02/01 03:38:24;;;;;;;0.50;0.50;;;;;;;-1.41;100.00;102670.97;5096206;28;20031;-78
2024/02/01 03:40:49;;;;;;;0.50;0.50;;;;;;;-1.38;100.00;102662.94;5095686;28;20492;-78
2024/02/01 03:43:15;;;;;;;0.50;0.50;;;;;;;-1.36;100.00;102669.03;5079309;28;20062;-78
2024/02/01 03:45:48;;;;;;;0.60;0.60;;;;;;;-1.35;100.00;102672.53;5096373;28;20040;-78
2024/02/01 03:48:17;;;;;;;0.50;0.50;;;;;;;-1.36;100.00;102679.59;5079606;28;20035;-78
2024/02/01 03:50:44;;;;;;;0.50;0.50;;;;;;;-1.27;100.00;102680.19;5079135;28;20471;-78
2024/02/01 03:53:10;;;;;;;0.50;0.50;;;;;;;-1.18;100.00;102683.38;5112790;28;20456;-78
2024/02/01 03:55:40;;;;;;;0.50;0.50;;;;;;;-1.07;100.00;102680.38;5113042;28;20110;-78
2024/02/01 03:58:07;;;;;;;0.50;0.50;;;;;;;-1.05;100.00;102686.47;5080524;28;20039;-78
2024/02/01 04:00:34;;;;;;;0.50;0.50;;;;;;;-1.02;100.00;102681.06;5083235;28;20040;-78
2024/02/01 04:03:07;;;;;;;0.50;0.50;;;;;;;-0.92;100.00;102677.19;5117169;28;20058;-78
2024/02/01 04:05:38;;;;;;;0.50;0.50;;;;;;;-0.89;100.00;102682.38;5117170;28;20376;-78
2024/02/01 04:08:07;;;;;;;0.50;0.50;;;;;;;-0.81;100.00;102681.25;5082907;28;20031;-78
2024/02/01 04:10:37;;;;;;;0.50;0.50;;;;;;;-0.75;100.00;102683.66;5100307;28;20031;-79
2024/02/01 04:13:07;;;;;;;0.50;0.50;;;;;;;-0.68;100.00;102693.09;5083103;28;20114;-78
2024/02/01 04:15:34;;;;;;;0.50;0.50;;;;;;;-0.60;100.00;102698.94;5116732;28;20111;-79
2024/02/01 04:18:00;;;;;;;0.50;0.50;;;;;;;-0.63;100.00;102688.50;5099578;28;20039;-78
2024/02/01 04:20:29;;;;;;;0.50;0.50;;;;;;;-0.71;100.00;102695.84;5116350;28;20038;-78
2024/02/01 04:22:54;;;;;;;0.50;0.50;;;;;;;-0.78;100.00;102696.97;5099893;28;20035;-79
2024/02/01 04:25:24;;;;;;;0.50;0.50;;;;;;;-0.84;100.00;102711.25;5100296;28;20481;-78
2024/02/01 04:27:50;;;;;;;0.50;0.50;;;;;;;-0.90;100.00;102712.34;5065654;28;20126;-78
2024/02/01 04:30:18;;;;;;;0.50;0.50;;;;;;;-0.98;100.00;102709.13;5065935;28;20463;-79
2024/02/01 04:32:45;;;;;;;0.50;0.50;;;;;;;-0.91;100.00;102721.16;5099558;28;20027;-78
2024/02/01 04:35:12;;;;;;;0.50;0.50;;;;;;;-0.84;100.00;102723.63;5082650;28;20081;-78
2024/02/01 04:37:43;;;;;;;0.50;0.50;;;;;;;-0.76;100.00;102732.97;5099655;28;20027;-77
2024/02/01 04:40:10;;;;;;;0.50;0.50;;;;;;;-0.70;100.00;102729.25;5099266;28;20028;-78
2024/02/01 04:42:37;;;;;;;0.50;0.50;;;;;;;-0.63;100.00;102720.22;5116023;28;20063;-78
2024/02/01 04:45:08;;;;;;;0.50;0.50;;;;;;;-0.59;100.00;102731.50;5082415;28;20088;-78
2024/02/01 04:47:38;;;;;;;0.50;0.50;;;;;;;-0.58;100.00;102734.13;5099419;28;20042;-78
2024/02/01 04:50:05;;;;;;;0.50;0.50;;;;;;;-0.49;100.00;102740.84;5082356;28;20034;-78
2024/02/01 04:52:31;;;;;;;0.50;0.50;;;;;;;-0.43;100.00;102739.75;5115742;28;20113;-79
2024/02/01 04:55:00;;;;;;;0.50;0.50;;;;;;;-0.46;100.00;102744.22;5082182;28;20089;-79
2024/02/01 04:57:25;;;;;;;0.50;0.50;;;;;;;-0.41;100.00;102746.72;5082558;28;20134;-78
2024/02/01 04:59:51;;;;;;;0.50;0.50;;;;;;;-0.45;100.00;102745.97;5082237;28;20446;-79
2024/02/01 05:02:17;;;;;;;0.50;0.50;;;;;;;-0.45;100.00;102759.19;5098851;28;20081;-79
2024/02/01 05:04:43;;;;;;;0.50;0.50;;;;;;;-0.40;100.00;102747.56;5082017;28;20383;-78
2024/02/01 05:07:10;;;;;;;0.50;0.50;;;;;;;-0.42;100.00;102750.28;5098731;28;20023;-78
2024/02/01 05:09:37;;;;;;;0.50;0.50;;;;;;;-0.43;100.00;102750.31;5081752;28;20036;-78
2024/02/01 05:12:03;;;;;;;0.50;0.50;;;;;;;-0.42;100.00;102746.75;5081845;28;20043;-78
2024/02/01 05:14:29;;;;;;;0.50;0.50;;;;;;;-0.40;100.00;102744.91;5081935;28;20364;-78
2024/02/01 05:16:55;;;;;;;0.50;0.50;;;;;;;-0.47;100.00;102745.16;5098719;28;20091;-78
2024/02/01 05:19:21;;;;;;;0.50;0.50;;;;;;;-0.50;100.00;102744.41;5081968;28;20035;-78
2024/02/01 05:21:47;;;;;;;0.50;0.50;;;;;;;-0.57;100.00;102735.84;5098506;28;20035;-78
2024/02/01 05:24:14;;;;;;;0.50;0.50;;;;;;;-0.60;100.00;102725.38;5081813;28;20471;-78
2024/02/01 05:26:46;;;;;;;0.50;0.50;;;;;;;-0.63;100.00;102733.41;5098336;28;20126;-78
2024/02/01 05:29:12;;;;;;;0.50;0.50;;;;;;;-0.68;100.00;102732.72;5098501;28;20039;-78
2024/02/01 05:31:38;;;;;;;0.50;0.50;;;;;;;-0.71;100.00;102738.13;5081541;28;20027;-78
2024/02/01 05:34:05;;;;;;;0.50;0.50;;;;;;;-0.75;100.00;102734.69;5081606;28;20024;-78
2024/02/01 05:36:34;;;;;;;0.50;0.50;;;;;;;-0.77;100.00;102741.81;5081506;28;20118;-78
2024/02/01 05:38:59;;;;;;;0.50;0.50;;;;;;;-0.79;100.00;102727.81;5081451;28;20122;-78
2024/02/01 05:41:25;;;;;;;0.50;0.50;;;;;;;-0.87;100.00;102719.31;5081468;28;20135;-78
2024/02/01 05:43:51;;;;;;;0.50;0.50;;;;;;;-0.88;100.00;102743.97;5081402;28;20028;-78
2024/02/01 05:46:16;;;;;;;0.50;0.50;;;;;;;-0.90;100.00;102738.75;5081364;28;20039;-78
2024/02/01 05:48:45;;;;;;;0.50;0.50;;;;;;;-0.92;100.00;102729.16;5081242;28;20119;-78
2024/02/01 05:51:11;;;;;;;0.50;0.50;;;;;;;-0.91;100.00;102726.44;5098077;28;20448;-78
2024/02/01 05:53:37;;;;;;;0.50;0.50;;;;;;;-0.94;100.00;102737.13;5081152;28;20066;-78
2024/02/01 05:56:04;;;;;;;0.50;0.50;;;;;;;-0.95;100.00;102732.78;5114798;28;20063;-78
2024/02/01 05:58:29;;;;;;;0.50;0.50;;;;;;;-1.05;100.00;102736.63;5081089;28;20046;-78
2024/02/01 06:00:57;;;;;;;0.50;0.50;;;;;;;-1.15;100.00;102741.34;5081051;28;20039;-79
2024/02/01 06:03:28;;;;;;;0.50;0.50;;;;;;;-1.26;100.00;102746.13;5114787;28;20073;-78
2024/02/01 06:05:53;;;;;;;0.50;0.50;;;;;;;-1.25;100.00;102753.13;5081011;28;20039;-78
2024/02/01 06:08:19;;;;;;;0.50;0.50;;;;;;;-1.17;100.00;102751.09;5080621;28;20459;-78
2024/02/01 06:10:45;;;;;;;0.50;0.50;;;;;;;-1.14;100.00;102751.00;5081337;28;20036;-78
2024/02/01 06:13:11;;;;;;;0.60;0.60;;;;;;;-1.18;100.00;102743.25;5080727;28;20487;-78
2024/02/01 06:15:37;;;;;;;0.50;0.50;;;;;;;-1.19;100.00;102747.66;5080787;28;20036;-78
2024/02/01 06:18:03;;;;;;;0.50;0.50;;;;;;;-1.06;100.00;102744.59;5116200;28;20040;-78
2024/02/01 06:20:29;;;;;;;0.50;0.50;;;;;;;-1.03;100.00;102753.28;5097524;28;20040;-78
2024/02/01 06:22:57;;;;;;;0.50;0.50;;;;;;;-1.01;100.00;102750.59;5080483;28;20071;-78
2024/02/01 06:25:23;;;;;;;0.50;0.50;;;;;;;-1.12;100.00;102753.59;5097968;28;20031;-78
2024/02/01 06:27:49;;;;;;;0.50;0.50;;;;;;;-1.24;100.00;102757.50;5080709;28;20034;-78
2024/02/01 06:30:15;;;;;;;0.50;0.50;;;;;;;-1.31;100.00;102750.69;5080456;28;20063;-77
2024/02/01 06:32:41;;;;;;;0.50;0.50;;;;;;;-1.37;100.00;102748.28;5097370;28;20032;-77
2024/02/01 06:35:16;;;;;;;0.50;0.50;;;;;;;-1.43;100.00;102746.69;5080378;28;20035;-79
2024/02/01 06:37:51;;;;;;;0.50;0.50;;;;;;;-1.48;100.00;102748.63;5098583;28;20031;-78
2024/02/01 06:43:17;;;;;;;0.50;0.50;;;;;;;-1.36;100.00;102755.25;5099637;28;20034;-77
2024/02/01 06:46:00;;;;;;;0.50;0.50;;;;;;;-1.25;100.00;102753.13;5098965;28;20089;-78
2024/02/01 06:48:40;;;;;;;;;;;;;;;-1.15;100.00;102754.56;5082608;28;20028;-77
2024/02/01 06:51:20;;;;;;;0.50;0.50;;;;;;;-1.06;100.00;102753.38;5099100;28;19912;-78
2024/02/01 06:53:56;;;;;;;0.60;0.60;;;;;;;-0.94;100.00;102762.66;5098873;28;20039;-78
2024/02/01 06:59:29;;;;;;;0.50;0.50;;;;;;;-0.78;100.00;102776.22;5098810;28;20130;-78
2024/02/01 07:02:03;;;;;;;0.50;0.50;;;;;;;-0.76;100.00;102787.59;5098867;28;20461;-78
2024/02/01 07:04:42;;;;;;;0.50;0.50;;;;;;;-0.77;100.00;102783.22;5081163;28;20092;-78
2024/02/01 07:07:27;;;;;;;0.50;0.50;;;;;;;-0.77;100.00;102781.44;5113779;28;20038;-78
2024/02/01 07:10:08;;;;;;;0.50;0.50;;;;;;;-0.72;100.00;102768.06;5082207;28;20039;-78
2024/02/01 07:12:41;;;;;;;0.50;0.50;;;;;;;-0.70;100.00;102763.59;5099559;28;20024;-78
2024/02/01 07:20:50;;;;;;;0.50;0.50;;;;;;;-0.72;100.00;102765.44;5099532;28;20049;-78
2024/02/01 07:25:52;;;;;;;0.50;0.50;;;;;;;-0.73;100.00;102785.69;5096185;28;20039;-78
2024/02/01 07:58:26;;;;;;;0.50;0.50;;;;;;;-1.12;100.00;102801.09;5098497;28;20039;-78
2024/02/01 08:00:53;;;;;;;0.50;0.50;;;;;;;-1.09;100.00;102810.72;5079067;28;20036;-78
2024/02/01 08:03:42;;;;;;;0.50;0.50;;;;;;;-1.08;100.00;102797.47;5096060;28;20050;-78
2024/02/01 08:08:53;;;;;;;0.50;0.50;;;;;;;-0.89;100.00;102809.13;5098419;28;20036;-78
2024/02/01 08:11:19;;;;;;;0.50;0.50;;;;;;;-0.74;100.00;102815.69;5078919;28;20105;-78
2024/02/01 08:13:48;;;;;;;0.50;0.50;;;;;;;-0.60;100.00;102822.28;5079116;28;20405;-78
2024/02/01 08:16:17;;;;;;;0.50;0.50;;;;;;;-0.58;100.00;102823.94;5079534;28;20035;-78
2024/02/01 08:18:43;;;;;;;0.45;0.45;;;;;;;-0.59;100.00;102832.78;5079289;28;20109;-78
2024/02/01 08:21:14;;;;;;;0.50;0.50;;;;;;;-0.59;100.00;102839.84;5112464;28;20023;-78
2024/02/01 08:23:41;;;;;;;0.50;0.50;;;;;;;-0.60;100.00;102839.00;5113115;28;20039;-79
2024/02/01 08:26:06;;;;;;;0.50;0.50;;;;;;;-0.61;100.00;102839.03;5112644;28;20067;-78
2024/02/01 08:28:32;;;;;;;0.50;0.50;;;;;;;-0.71;100.00;102828.78;5094949;28;20059;-78
2024/02/01 08:31:02;;;;;;;0.50;0.50;;;;;;;-0.72;100.00;102815.63;5078653;28;20042;-78
2024/02/01 08:33:29;;;;;;;0.50;0.50;;;;;;;-0.61;100.00;102802.91;5112211;28;20055;-78
2024/02/01 08:35:54;;;;;;;0.50;0.50;;;;;;;-0.56;100.00;102808.88;5095637;28;20470;-78
2024/02/01 08:38:22;;;;;;;0.50;0.50;;;;;;;-0.48;100.00;102812.16;5078753;28;20080;-78
2024/02/01 08:40:47;;;;;;;0.57;0.57;;;;;;;-0.30;100.00;102820.31;5078758;28;20066;-78
2024/02/01 08:43:13;;;;;;;0.50;0.50;;;;;;;-0.17;100.00;102812.81;5079102;28;20031;-78
2024/02/01 08:45:40;;;;;;;0.50;0.50;;;;;;;-0.14;100.00;102824.13;5082233;28;20087;-78
2024/02/01 08:48:08;;;;;;;0.50;0.50;;;;;;;-0.12;100.00;102827.59;5082026;28;20470;-78
2024/02/01 08:50:46;;;;;;;0.50;0.50;;;;;;;-0.08;100.00;102833.63;5099040;28;20054;-78
2024/02/01 08:53:13;;;;;;;0.50;0.50;;;;;;;-0.04;100.00;102828.19;5099433;28;20031;-78
2024/02/01 08:55:39;;;;;;;0.50;0.50;;;;;;;-0.02;100.00;102836.91;5098940;28;20079;-77
2024/02/01 08:58:08;;;;;;;0.60;0.60;;;;;;;0.01;100.00;102837.75;5099117;28;20031;-78
2024/02/01 09:00:36;;;;;;;0.50;0.50;;;;;;;0.03;100.00;102843.81;5082424;28;20028;-78
2024/02/01 09:03:03;;;;;;;0.50;0.50;;;;;;;0.03;100.00;102841.16;5098532;28;20073;-78
2024/02/01 09:05:30;;;;;;;0.60;0.60;;;;;;;0.06;100.00;102843.72;5081862;28;20032;-77
2024/02/01 09:07:57;;;;;;;0.50;0.50;;;;;;;0.04;100.00;102841.13;5098911;28;20020;-77
2024/02/01 09:10:23;;;;;;;0.50;0.50;;;;;;;0.05;100.00;102842.84;5098188;28;20031;-77
2024/02/01 09:12:49;;;;;;;0.50;0.50;;;;;;;0.06;100.00;102844.56;5082497;28;20039;-77
2024/02/01 09:15:15;;;;;;;0.50;0.50;;;;;;;0.10;100.00;102829.44;5081970;28;20027;-77
2024/02/01 09:17:41;;;;;;;0.60;0.60;;;;;;;0.15;100.00;102828.34;5098583;28;20054;-77
2024/02/01 09:20:17;;;;;;;0.50;0.50;;;;;;;0.14;100.00;102816.06;5081853;28;20039;-77
2024/02/01 09:22:48;;;;;;;0.50;0.50;;;;;;;0.28;100.00;102831.41;5115552;28;20161;-77
2024/02/01 09:25:26;;;;;;;0.47;0.47;;;;;;;0.33;100.00;102832.09;5081603;28;20047;-77
2024/02/01 09:27:53;;;;;;;0.50;0.50;;;;;;;0.42;100.00;102829.09;5095007;28;20122;-77
2024/02/01 09:30:20;;;;;;;0.50;0.50;;;;;;;0.53;100.00;102831.34;5098459;28;20031;-77
2024/02/01 09:32:51;;;;;;;0.50;0.50;;;;;;;0.66;100.00;102836.97;5115805;28;20058;-77
2024/02/01 09:35:17;;;;;;;0.40;0.40;;;;;;;0.82;100.00;102840.78;5115347;28;20024;-77
2024/02/01 09:37:43;;;;;;;0.50;0.50;;;;;;;1.02;100.00;102834.66;5081564;28;20054;-77
2024/02/01 09:40:12;;;;;;;0.50;0.50;;;;;;;1.22;100.00;102846.22;5081475;28;20071;-77
2024/02/01 09:42:41;;;;;;;0.50;0.50;;;;;;;1.39;100.00;102856.13;5081816;28;20040;-76
2024/02/01 09:45:07;;;;;;;0.50;0.50;;;;;;;1.49;100.00;102854.81;5081917;28;20027;-76
2024/02/01 09:47:54;;;;;;;0.50;0.50;;;;;;;1.55;100.00;102846.56;5064661;28;20039;-76
2024/02/01 09:50:22;;;;;;;0.55;0.55;;;;;;;1.58;100.00;102864.16;5086444;28;20048;-76
2024/02/01 09:52:50;;;;;;;0.50;0.50;;;;;;;1.60;100.00;102879.06;5081692;28;20475;-76
2024/02/01 09:55:18;;;;;;;0.50;0.50;;;;;;;1.66;100.00;102884.09;5097378;28;20062;-77
2024/02/01 09:57:48;;;;;;;0.50;0.50;;;;;;;1.71;100.00;102883.91;5114191;28;20038;-76
2024/02/01 10:00:18;;;;;;;0.50;0.50;;;;;;;1.75;100.00;102888.16;5081518;28;20031;-77
2024/02/01 10:02:48;;;;;;;0.60;0.60;;;;;;;1.75;100.00;102881.06;5098092;28;20085;-76
2024/02/01 10:05:14;;;;;;;0.50;0.50;;;;;;;1.76;100.00;102863.34;5097718;28;20111;-76
2024/02/01 10:07:40;;;;;;;0.50;0.50;;;;;;;1.84;100.00;102873.63;5114544;28;20032;-76
2024/02/01 10:10:06;;;;;;;0.50;0.50;;;;;;;1.88;100.00;102856.63;5114137;28;20027;-74
2024/02/01 10:12:34;;;;;;;0.50;0.50;;;;;;;1.93;100.00;102849.31;5079870;28;20035;-75
2024/02/01 10:15:10;;;;;;;0.50;0.50;;;;;;;1.99;100.00;102849.06;5080664;28;20042;-74
2024/02/01 10:17:45;;;;;;;0.50;0.50;;;;;;;2.02;100.00;102850.72;5098156;28;20050;-74
2024/02/01 10:20:45;;;;;;;0.55;0.55;;;;;;;2.06;100.00;102849.66;5081046;28;20039;-75
2024/02/01 10:23:13;;;;;;;0.50;0.50;;;;;;;2.09;100.00;102838.88;5099815;28;20044;-75
2024/02/01 10:25:46;;;;;;;0.50;0.50;;;;;;;2.30;100.00;102852.97;5064362;28;20047;-75
2024/02/01 10:28:18;;;;;;;0.60;0.60;;;;;;;2.43;100.00;102843.50;5096616;28;20023;-75
2024/02/01 10:30:47;;;;;;;0.40;0.40;;;;;;;2.51;100.00;102845.81;5097807;28;20403;-74
2024/02/01 10:33:19;;;;;;;0.50;0.50;;;;;;;2.61;100.00;102855.91;5097207;28;20071;-74
2024/02/01 10:35:49;;;;;;;0.50;0.50;;;;;;;2.75;100.00;102841.13;5080528;28;20106;-74
2024/02/01 10:38:25;;;;;;;0.50;0.50;;;;;;;2.89;100.00;102827.19;5096647;28;20110;-75
2024/02/01 10:40:51;;;;;;;0.50;0.50;;;;;;;3.00;100.00;102820.41;5112876;28;20028;-74
2024/02/01 10:43:22;;;;;;;0.50;0.50;;;;;;;3.14;100.00;102816.19;5096336;28;20062;-75
2024/02/01 10:46:10;;;;;;;0.52;0.52;;;;;;;3.25;100.00;102835.97;5080012;28;20032;-75
2024/02/01 10:48:43;;;;;;;0.55;0.55;;;;;;;3.40;100.00;102838.81;5082251;28;20543;-75
2024/02/01 10:51:11;;;;;;;0.50;0.50;;;;;;;3.47;100.00;102833.09;5097387;28;20031;-75
2024/02/01 10:53:42;;;;;;;0.60;0.60;;;;;;;3.59;100.00;102822.75;5080354;28;20039;-75
2024/02/01 10:56:16;;;;;;;0.50;0.50;;;;;;;3.72;100.00;102830.00;5097411;28;20036;-75
2024/02/01 10:58:51;;;;;;;0.50;0.50;;;;;;;3.93;100.00;102816.50;5079999;28;20047;-75
2024/02/01 11:01:19;;;;;;;0.50;0.50;;;;;;;4.05;100.00;102828.28;5096493;28;20031;-75
2024/02/01 11:03:58;;;;;;;0.50;0.50;;;;;;;4.15;100.00;102834.84;5079717;28;20023;-75
2024/02/01 11:06:27;;;;;;;0.50;0.50;;;;;;;4.30;100.00;102847.31;5079466;28;20035;-75
2024/02/01 11:09:01;;;;;;;0.50;0.50;;;;;;;4.47;100.00;102857.03;5096668;28;20410;-75
2024/02/01 11:11:32;;;;;;;0.52;0.52;;;;;;;4.59;100.00;102864.38;5112992;28;20426;-75
2024/02/01 11:14:09;;;;;;;0.50;0.50;;;;;;;4.70;100.00;102871.75;5112765;28;20025;-75
2024/02/01 11:16:58;;;;;;;0.50;0.50;;;;;;;4.89;100.00;102858.25;5095900;28;20019;-75
2024/02/01 11:19:29;;;;;;;0.50;0.50;;;;;;;5.04;100.00;102846.72;5096612;28;20031;-75
2024/02/01 11:21:57;;;;;;;0.50;0.50;;;;;;;5.30;100.00;102852.34;5079009;28;20035;-75
2024/02/01 11:24:26;;;;;;;0.52;0.52;;;;;;;5.47;100.00;102851.34;5096087;28;20522;-75
2024/02/01 11:27:09;;;;;;;0.57;0.57;;;;;;;5.58;100.00;102851.56;5096124;28;20031;-76
2024/02/01 11:29:45;;;;;;;0.55;0.55;;;;;;;5.69;100.00;102853.59;5112680;28;20048;-76
2024/02/01 11:32:18;;;;;;;0.45;0.45;;;;;;;5.71;100.00;102849.00;5112829;28;20471;-75
2024/02/01 11:34:59;;;;;;;0.50;0.50;;;;;;;5.89;100.00;102845.22;5079626;28;20066;-75
2024/02/01 11:37:24;;;;;;;0.50;0.50;;;;;;;5.85;100.00;102833.03;5097973;28;20495;-75
2024/02/01 11:39:52;;;;;;;0.50;0.50;;;;;;;5.80;100.00;102834.28;5079148;28;20088;-75
2024/02/01 11:42:24;;;;;;;0.40;0.40;;;;;;;5.77;100.00;102837.09;5079368;28;20089;-76
2024/02/01 11:44:50;;;;;;;0.50;0.50;;;;;;;5.85;100.00;102819.69;5096893;28;20132;-75
2024/02/01 11:47:26;;;;;;;0.60;0.60;;;;;;;6.30;100.00;102814.28;5079000;28;20059;-76
2024/02/01 11:49:55;;;;;;;0.50;0.50;;;;;;;6.82;100.00;102806.38;5097014;28;20122;-76
2024/02/01 11:52:47;;;;;;;0.50;0.50;;;;;;;7.12;100.00;102808.00;5079246;28;20039;-76
2024/02/01 11:55:14;;;;;;;0.50;0.50;;;;;;;7.36;100.00;102796.59;5079078;28;20024;-78
2024/02/01 11:57:47;;;;;;;0.50;0.50;;;;;;;7.58;100.00;102807.53;5079390;28;20039;-78
2024/02/01 12:00:20;;;;;;;0.50;0.50;;;;;;;7.52;100.00;102801.75;5113277;28;20032;-78
2024/02/01 12:02:47;;;;;;;0.47;0.47;;;;;;;7.27;100.00;102795.38;5099973;28;20035;-78
2024/02/01 12:05:20;;;;;;;0.50;0.50;;;;;;;7.18;100.00;102785.31;5096683;28;20119;-78
2024/02/01 12:07:47;;;;;;;0.50;0.50;;;;;;;7.47;100.00;102789.53;5095755;28;20106;-78
2024/02/01 12:10:16;;;;;;;0.50;0.50;;;;;;;7.62;100.00;102774.25;5079172;28;20039;-78
2024/02/01 12:12:44;;;;;;;0.50;0.50;;;;;;;7.51;100.00;102781.28;5096237;28;20031;-78
2024/02/01 12:15:11;;;;;;;0.50;0.50;;;;;;;7.51;100.00;102766.06;5095590;28;20024;-78